Time;durP1;ratioP1;P1;durP2;ratioP2;P2;SDS_P1;SDS_P2;PMS_P1;PMS_P2;Temp;Humidity;BMP_temperature;BMP_pressure;BME280_temperature;BME280_humidity;BME280_pressure;Samples;Min_cycle;Max_cycle;Signal;HPM_P1;HPM_P2
2022/09/15 00:02:14;;;;;;;;;;;;;;;;;;5077573;28;19920;-24
2022/09/15 00:04:40;;;;;;;;;;;;;;;;;;5077549;28;19923;-24
2022/09/15 00:07:06;;;;;;;;;;;;;;;;;;5077490;28;19916;-24
2022/09/15 00:09:32;;;;;;;;;;;;;;;;;;5077594;28;20012;-24
2022/09/15 00:11:58;;;;;;;;;;;;;;;;;;5077352;28;19912;-24
2022/09/15 00:14:23;;;;;;;;;;;;;;;;;;5077432;28;19908;-24
2022/09/15 00:16:49;;;;;;;;;;;;;;;;;;5077388;28;19912;-24
2022/09/15 00:19:15;;;;;;;;;;;;;;;;;;5077377;28;19912;-24
2022/09/15 00:21:41;;;;;;;;;;;;;;;;;;5077335;28;19919;-24
2022/09/15 00:24:07;;;;;;;;;;;;;;;;;;5077184;28;19912;-24
2022/09/15 00:26:33;;;;;;;;;;;;;;;;;;5077076;28;19921;-24
2022/09/15 00:28:59;;;;;;;;;;;;;;;;;;5077626;28;19909;-27
2022/09/15 00:31:25;;;;;;;;;;;;;;;;;;5077785;28;19917;-24
2022/09/15 00:33:51;;;;;;;;;;;;;;;;;;5077059;28;19909;-24
2022/09/15 00:36:17;;;;;;;;;;;;;;;;;;5077019;28;20013;-24
2022/09/15 00:38:43;;;;;;;;;;;;;;;;;;5076872;28;19909;-24
2022/09/15 00:41:09;;;;;;;;;;;;;;;;;;5077089;28;19912;-24
2022/09/15 00:43:35;;;;;;;;;;;;;;;;;;5076637;28;19924;-24
2022/09/15 00:46:01;;;;;;;;;;;;;;;;;;5076769;28;20329;-24
2022/09/15 00:48:27;;;;;;;;;;;;;;;;;;5076928;28;19915;-24
2022/09/15 00:50:53;;;;;;;;;;;;;;;;;;5076815;28;19923;-24
2022/09/15 00:53:19;;;;;;;;;;;;;;;;;;5076690;28;19912;-24
2022/09/15 00:55:46;;;;;;;;;;;;;;;;;;5076776;28;19920;-24
2022/09/15 00:58:12;;;;;;;;;;;;;;;;;;5076639;28;19939;-24
2022/09/15 01:00:38;;;;;;;;;;;;;;;;;;5076827;28;20335;-24
2022/09/15 01:03:04;;;;;;;;;;;;;;;;;;5076478;28;19920;-24
2022/09/15 01:05:30;;;;;;;;;;;;;;;;;;5076404;28;19916;-23
2022/09/15 01:07:56;;;;;;;;;;;;;;;;;;5076488;28;19920;-24
2022/09/15 01:10:22;;;;;;;;;;;;;;;;;;5076353;28;20343;-24
2022/09/15 01:12:48;;;;;;;;;;;;;;;;;;5058601;28;19921;-24
2022/09/15 01:15:15;;;;;;;;;;;;;;;;;;5058595;28;20255;-24
2022/09/15 01:17:41;;;;;;;;;;;;;;;;;;5076551;28;19909;-24
2022/09/15 01:20:07;;;;;;;;;;;;;;;;;;5076119;28;20290;-24
2022/09/15 01:22:33;;;;;;;;;;;;;;;;;;5075984;28;19909;-24
2022/09/15 01:24:59;;;;;;;;;;;;;;;;;;5075832;28;19917;-24
2022/09/15 01:27:25;;;;;;;;;;;;;;;;;;5076270;28;19969;-24
2022/09/15 01:29:51;;;;;;;;;;;;;;;;;;5076055;28;19920;-24
2022/09/15 01:35:01;;;;;;;;;;;;;;;;;;5075989;28;19923;-24
2022/09/15 01:37:27;;;;;;;;;;;;;;;;;;5075842;28;19913;-24
2022/09/15 01:39:53;;;;;;;;;;;;;;;;;;5075765;28;19915;-24
2022/09/15 01:42:19;;;;;;;;;;;;;;;;;;5075995;28;20323;-24
2022/09/15 01:44:45;;;;;;;;;;;;;;;;;;5075522;28;19917;-24
2022/09/15 01:47:11;;;;;;;;;;;;;;;;;;5075756;28;19909;-24
2022/09/15 01:49:37;;;;;;;;;;;;;;;;;;5075494;28;20284;-24
2022/09/15 01:52:03;;;;;;;;;;;;;;;;;;5075669;28;19908;-24
2022/09/15 01:54:29;;;;;;;;;;;;;;;;;;5074915;28;19974;-24
2022/09/15 01:56:55;;;;;;;;;;;;;;;;;;5075306;28;19978;-24
2022/09/15 01:59:21;;;;;;;;;;;;;;;;;;5075272;28;19913;-24
2022/09/15 02:01:49;;;;;;;;;;;;;;;;;;5075215;28;19952;-24
2022/09/15 02:04:17;;;;;;;;;;;;;;;;;;5075145;28;20266;-24
2022/09/15 02:06:43;;;;;;;;;;;;;;;;;;5075260;28;19938;-24
2022/09/15 02:09:09;;;;;;;;;;;;;;;;;;5075161;28;19963;-24
2022/09/15 02:11:35;;;;;;;;;;;;;;;;;;5075244;28;19917;-24
2022/09/15 02:14:02;;;;;;;;;;;;;;;;;;5057511;28;20338;-24
2022/09/15 02:16:28;;;;;;;;;;;;;;;;;;5075128;28;19943;-24
2022/09/15 02:18:55;;;;;;;;;;;;;;;;;;5075144;28;19912;-24
2022/09/15 02:21:21;;;;;;;;;;;;;;;;;;5075327;28;19939;-24
2022/09/15 02:23:47;;;;;;;;;;;;;;;;;;5057194;28;20029;-24
2022/09/15 02:26:13;;;;;;;;;;;;;;;;;;5074787;28;19920;-24
2022/09/15 02:28:39;;;;;;;;;;;;;;;;;;5057122;28;20293;-24
2022/09/15 02:31:05;;;;;;;;;;;;;;;;;;5074778;28;19916;-24
2022/09/15 02:33:31;;;;;;;;;;;;;;;;;;5074804;28;20010;-35
2022/09/15 02:35:57;;;;;;;;;;;;;;;;;;5074712;28;19912;-23
2022/09/15 02:38:26;;;;;;;;;;;;;;;;;;5057095;28;19912;-25
2022/09/15 02:40:52;;;;;;;;;;;;;;;;;;5074927;28;19909;-23
2022/09/15 02:43:18;;;;;;;;;;;;;;;;;;5074739;28;19977;-23
2022/09/15 02:45:44;;;;;;;;;;;;;;;;;;5074655;28;20255;-23
2022/09/15 02:48:10;;;;;;;;;;;;;;;;;;5074937;28;20013;-23
2022/09/15 02:50:36;;;;;;;;;;;;;;;;;;5074638;28;19973;-23
2022/09/15 02:53:02;;;;;;;;;;;;;;;;;;5074527;28;19974;-23
2022/09/15 02:55:28;;;;;;;;;;;;;;;;;;5074859;28;19912;-23
2022/09/15 02:57:54;;;;;;;;;;;;;;;;;;5074691;28;20251;-23
2022/09/15 03:00:20;;;;;;;;;;;;;;;;;;5074489;28;19915;-23
2022/09/15 03:02:47;;;;;;;;;;;;;;;;;;5074325;28;19916;-23
2022/09/15 03:05:13;;;;;;;;;;;;;;;;;;5074803;28;19913;-22
2022/09/15 03:07:39;;;;;;;;;;;;;;;;;;5074684;28;20259;-23
2022/09/15 03:10:05;;;;;;;;;;;;;;;;;;5074391;28;20409;-23
2022/09/15 03:12:31;;;;;;;;;;;;;;;;;;5074258;28;19913;-23
2022/09/15 03:14:57;;;;;;;;;;;;;;;;;;5074414;28;20007;-23
2022/09/15 03:17:23;;;;;;;;;;;;;;;;;;5074289;28;19912;-23
2022/09/15 03:19:49;;;;;;;;;;;;;;;;;;5074284;28;20361;-23
2022/09/15 03:22:15;;;;;;;;;;;;;;;;;;5074416;28;20335;-23
2022/09/15 03:24:41;;;;;;;;;;;;;;;;;;5074275;28;19924;-23
2022/09/15 03:27:08;;;;;;;;;;;;;;;;;;5074154;28;19924;-23
2022/09/15 03:29:34;;;;;;;;;;;;;;;;;;5074254;28;19996;-23
2022/09/15 03:32:00;;;;;;;;;;;;;;;;;;5074406;28;19991;-23
2022/09/15 03:34:26;;;;;;;;;;;;;;;;;;5074354;28;19955;-23
2022/09/15 03:36:52;;;;;;;;;;;;;;;;;;5074048;28;19913;-23
2022/09/15 03:39:18;;;;;;;;;;;;;;;;;;5074035;28;19908;-23
2022/09/15 03:41:44;;;;;;;;;;;;;;;;;;5074068;28;19912;-23
2022/09/15 03:44:10;;;;;;;;;;;;;;;;;;5073853;28;19916;-22
2022/09/15 03:46:36;;;;;;;;;;;;;;;;;;5074175;28;19991;-22
2022/09/15 03:49:02;;;;;;;;;;;;;;;;;;5074098;28;19924;-22
2022/09/15 03:51:28;;;;;;;;;;;;;;;;;;5055978;28;19912;-23
2022/09/15 03:53:54;;;;;;;;;;;;;;;;;;5073895;28;19909;-23
2022/09/15 03:56:20;;;;;;;;;;;;;;;;;;5074005;28;20400;-23
2022/09/15 03:58:46;;;;;;;;;;;;;;;;;;5073769;28;19913;-23
2022/09/15 04:03:48;;;;;;;;;;;;;;;;;;5189022;22;19925;-19
2022/09/15 04:06:14;;;;;;;;;;;;;;;;;;5036299;28;19924;-19
2022/09/15 04:08:40;;;;;;;;;;;;;;;;;;5036222;28;19909;-20
2022/09/15 04:11:06;;;;;;;;;;;;;;;;;;5054037;28;19919;-20
2022/09/15 04:13:32;;;;;;;;;;;;;;;;;;5053687;28;20254;-19
2022/09/15 04:15:59;;;;;;;;;;;;;;;;;;5054470;28;19915;-19
2022/09/15 04:18:25;;;;;;;;;;;;;;;;;;5056674;28;19913;-19
2022/09/15 04:20:51;;;;;;;;;;;;;;;;;;5057903;28;19962;-19
2022/09/15 04:23:17;;;;;;;;;;;;;;;;;;5057167;28;19909;-19
2022/09/15 04:25:43;;;;;;;;;;;;;;;;;;5057562;28;19917;-20
2022/09/15 04:28:09;;;;;;;;;;;;;;;;;;5039592;28;19952;-19
2022/09/15 04:30:35;;;;;;;;;;;;;;;;;;5057170;28;19996;-20
2022/09/15 04:33:01;;;;;;;;;;;;;;;;;;5056954;28;19928;-20
2022/09/15 04:35:27;;;;;;;;;;;;;;;;;;5056991;28;19913;-20
2022/09/15 04:37:54;;;;;;;;;;;;;;;;;;5056887;28;19931;-20
2022/09/15 04:40:20;;;;;;;;;;;;;;;;;;5057154;28;19917;-19
2022/09/15 04:42:46;;;;;;;;;;;;;;;;;;5057025;28;19959;-20
2022/09/15 04:45:12;;;;;;;;;;;;;;;;;;5056680;28;19928;-19
2022/09/15 04:47:38;;;;;;;;;;;;;;;;;;5056742;28;19969;-19
2022/09/15 04:50:04;;;;;;;;;;;;;;;;;;5056991;28;20381;-19
2022/09/15 04:52:30;;;;;;;;;;;;;;;;;;5056824;28;19923;-19
2022/09/15 04:54:56;;;;;;;;;;;;;;;;;;5056691;28;19962;-19
2022/09/15 04:57:22;;;;;;;;;;;;;;;;;;5056543;28;19916;-19
2022/09/15 04:59:48;;;;;;;;;;;;;;;;;;5038920;28;19919;-19
2022/09/15 05:02:14;;;;;;;;;;;;;;;;;;5056703;28;19943;-20
2022/09/15 05:04:40;;;;;;;;;;;;;;;;;;5038702;28;20279;-18
2022/09/15 05:07:06;;;;;;;;;;;;;;;;;;5038569;28;19916;-20
2022/09/15 05:09:32;;;;;;;;;;;;;;;;;;5056316;28;19939;-19
2022/09/15 05:11:58;;;;;;;;;;;;;;;;;;5056156;28;19943;-20
2022/09/15 05:14:24;;;;;;;;;;;;;;;;;;5056270;28;19909;-19
2022/09/15 05:16:50;;;;;;;;;;;;;;;;;;5056212;28;19927;-19
2022/09/15 05:19:16;;;;;;;;;;;;;;;;;;5056513;28;19908;-20
2022/09/15 05:21:42;;;;;;;;;;;;;;;;;;5038408;28;19917;-27
2022/09/15 05:24:08;;;;;;;;;;;;;;;;;;5056165;28;20362;-20
2022/09/15 05:26:34;;;;;;;;;;;;;;;;;;5056132;28;19912;-19
2022/09/15 05:29:00;;;;;;;;;;;;;;;;;;5055714;28;19908;-19
2022/09/15 05:31:26;;;;;;;;;;;;;;;;;;5055776;28;19913;-20
2022/09/15 05:33:52;;;;;;;;;;;;;;;;;;5038059;28;20318;-20
2022/09/15 05:36:20;;;;;;;;;;;;;;;;;;5055936;28;19913;-20
2022/09/15 05:38:46;;;;;;;;;;;;;;;;;;5055694;28;19976;-20
2022/09/15 05:41:12;;;;;;;;;;;;;;;;;;5055977;28;19987;-19
2022/09/15 05:43:38;;;;;;;;;;;;;;;;;;5055452;28;19944;-19
2022/09/15 05:46:04;;;;;;;;;;;;;;;;;;5055609;28;19924;-20
2022/09/15 05:48:30;;;;;;;;;;;;;;;;;;5055929;28;19912;-20
2022/09/15 05:50:56;;;;;;;;;;;;;;;;;;5055715;28;19999;-20
2022/09/15 05:53:22;;;;;;;;;;;;;;;;;;5055164;28;20347;-20
2022/09/15 05:55:48;;;;;;;;;;;;;;;;;;5055640;28;20255;-20
2022/09/15 05:58:14;;;;;;;;;;;;;;;;;;5055425;28;19909;-20
2022/09/15 06:00:40;;;;;;;;;;;;;;;;;;5055214;28;19995;-20
2022/09/15 06:03:06;;;;;;;;;;;;;;;;;;5063756;28;19916;-19
2022/09/15 06:05:32;;;;;;;;;;;;;;;;;;5075398;28;19920;-20
2022/09/15 06:07:58;;;;;;;;;;;;;;;;;;5075058;28;19913;-20
2022/09/15 06:10:24;;;;;;;;;;;;;;;;;;5075701;28;19927;-20
2022/09/15 06:12:50;;;;;;;;;;;;;;;;;;5075224;28;19916;-20
2022/09/15 06:15:17;;;;;;;;;;;;;;;;;;5074764;28;20350;-20
2022/09/15 06:17:43;;;;;;;;;;;;;;;;;;5074547;28;19932;-20
2022/09/15 06:20:09;;;;;;;;;;;;;;;;;;5075019;28;19913;-20
2022/09/15 06:22:35;;;;;;;;;;;;;;;;;;5074524;28;19951;-20
2022/09/15 06:25:01;;;;;;;;;;;;;;;;;;5074497;28;19960;-21
2022/09/15 06:27:27;;;;;;;;;;;;;;;;;;5074888;28;19913;-20
2022/09/15 06:29:53;;;;;;;;;;;;;;;;;;5074961;28;20276;-19
2022/09/15 06:32:19;;;;;;;;;;;;;;;;;;5074237;28;19913;-19
2022/09/15 06:34:45;;;;;;;;;;;;;;;;;;5074717;28;20000;-20
2022/09/15 06:37:11;;;;;;;;;;;;;;;;;;5056431;28;20343;-21
2022/09/15 06:39:38;;;;;;;;;;;;;;;;;;5073762;28;19959;-19
2022/09/15 06:42:04;;;;;;;;;;;;;;;;;;5074651;28;19939;-20
2022/09/15 06:44:30;;;;;;;;;;;;;;;;;;5074305;28;20397;-20
2022/09/15 06:46:57;;;;;;;;;;;;;;;;;;5074422;28;19912;-20
2022/09/15 06:49:23;;;;;;;;;;;;;;;;;;5074689;28;20003;-19
2022/09/15 06:51:49;;;;;;;;;;;;;;;;;;5074289;28;20004;-19
2022/09/15 06:54:15;;;;;;;;;;;;;;;;;;5074485;28;19951;-21
2022/09/15 06:56:42;;;;;;;;;;;;;;;;;;5074606;28;19916;-19
2022/09/15 06:59:08;;;;;;;;;;;;;;;;;;5074469;28;19908;-20
2022/09/15 07:01:34;;;;;;;;;;;;;;;;;;5074974;28;20011;-20
2022/09/15 07:04:01;;;;;;;;;;;;;;;;;;5073975;28;19955;-20
2022/09/15 07:06:27;;;;;;;;;;;;;;;;;;5074107;28;19965;-18
2022/09/15 07:08:53;;;;;;;;;;;;;;;;;;5074106;28;19923;-19
2022/09/15 07:11:19;;;;;;;;;;;;;;;;;;5056579;28;19912;-19
2022/09/15 07:13:45;;;;;;;;;;;;;;;;;;5074506;28;19999;-20
2022/09/15 07:16:11;;;;;;;;;;;;;;;;;;5074175;28;19915;-20
2022/09/15 07:18:37;;;;;;;;;;;;;;;;;;5074029;28;19920;-19
2022/09/15 07:21:04;;;;;;;;;;;;;;;;;;5056444;28;19923;-19
2022/09/15 07:23:30;;;;;;;;;;;;;;;;;;5074451;28;20238;-19
2022/09/15 07:25:56;;;;;;;;;;;;;;;;;;5074430;28;20232;-19
2022/09/15 07:28:22;;;;;;;;;;;;;;;;;;5074619;28;19916;-19
2022/09/15 07:30:48;;;;;;;;;;;;;;;;;;5074050;28;19908;-20
2022/09/15 07:33:15;;;;;;;;;;;;;;;;;;5073863;28;19912;-19
2022/09/15 07:35:41;;;;;;;;;;;;;;;;;;5074713;28;19952;-19
2022/09/15 07:38:07;;;;;;;;;;;;;;;;;;5073957;28;20441;-19
2022/09/15 07:40:33;;;;;;;;;;;;;;;;;;5073932;28;19995;-20
2022/09/15 07:42:59;;;;;;;;;;;;;;;;;;5073768;28;19912;-20
2022/09/15 07:45:25;;;;;;;;;;;;;;;;;;5073915;28;19913;-19
2022/09/15 07:47:51;;;;;;;;;;;;;;;;;;5073890;28;19961;-19
2022/09/15 07:50:17;;;;;;;;;;;;;;;;;;5056154;28;20010;-20
2022/09/15 07:52:43;;;;;;;;;;;;;;;;;;5075618;28;20358;-19
2022/09/15 07:55:09;;;;;;;;;;;;;;;;;;5077829;28;19997;-20
2022/09/15 07:57:35;;;;;;;;;;;;;;;;;;5077704;28;19919;-20
2022/09/15 08:00:02;;;;;;;;;;;;;;;;;;5077676;28;20012;-20
2022/09/15 08:02:28;;;;;;;;;;;;;;;;;;5077839;28;19909;-21
2022/09/15 08:04:55;;;;;;;;;;;;;;;;;;5077643;28;19952;-20
2022/09/15 08:07:21;;;;;;;;;;;;;;;;;;5077496;28;20297;-19
2022/09/15 08:09:47;;;;;;;;;;;;;;;;;;5077820;28;20246;-20
2022/09/15 08:12:13;;;;;;;;;;;;;;;;;;5077442;28;19922;-20
2022/09/15 08:14:39;;;;;;;;;;;;;;;;;;5076912;28;19920;-20
2022/09/15 08:17:05;;;;;;;;;;;;;;;;;;5077181;28;19908;-19
2022/09/15 08:19:31;;;;;;;;;;;;;;;;;;5077329;28;19913;-19
2022/09/15 08:21:57;;;;;;;;;;;;;;;;;;5077064;28;20347;-19
2022/09/15 08:24:23;;;;;;;;;;;;;;;;;;5076992;28;19924;-19
2022/09/15 08:26:49;;;;;;;;;;;;;;;;;;5076911;28;20239;-20
2022/09/15 08:29:16;;;;;;;;;;;;;;;;;;5077164;28;19908;-19
2022/09/15 08:31:43;;;;;;;;;;;;;;;;;;5076656;28;19917;-19
2022/09/15 08:34:09;;;;;;;;;;;;;;;;;;5076974;28;19908;-20
2022/09/15 08:36:35;;;;;;;;;;;;;;;;;;5076957;28;19920;-19
2022/09/15 08:39:01;;;;;;;;;;;;;;;;;;5077084;28;19953;-19
2022/09/15 08:41:27;;;;;;;;;;;;;;;;;;5076879;28;19962;-19
2022/09/15 08:43:53;;;;;;;;;;;;;;;;;;5076458;28;20343;-19
2022/09/15 08:46:19;;;;;;;;;;;;;;;;;;5058476;28;20270;-19
2022/09/15 08:48:45;;;;;;;;;;;;;;;;;;5076117;28;19912;-20
2022/09/15 08:51:11;;;;;;;;;;;;;;;;;;5076141;28;19919;-20
2022/09/15 08:53:37;;;;;;;;;;;;;;;;;;5075890;28;19912;-19
2022/09/15 08:56:03;;;;;;;;;;;;;;;;;;5076171;28;19912;-20
2022/09/15 08:58:29;;;;;;;;;;;;;;;;;;5076236;28;19909;-20
2022/09/15 09:00:56;;;;;;;;;;;;;;;;;;5075875;28;20003;-20
2022/09/15 09:03:22;;;;;;;;;;;;;;;;;;5057481;28;19924;-19
2022/09/15 09:05:48;;;;;;;;;;;;;;;;;;5075692;28;20374;-20
2022/09/15 09:08:14;;;;;;;;;;;;;;;;;;5057880;28;20215;-19
2022/09/15 09:10:40;;;;;;;;;;;;;;;;;;5075730;28;19909;-19
2022/09/15 09:13:06;;;;;;;;;;;;;;;;;;5075759;28;20247;-20
2022/09/15 09:15:32;;;;;;;;;;;;;;;;;;5075939;28;19939;-19
2022/09/15 09:17:58;;;;;;;;;;;;;;;;;;5057854;28;19987;-21
2022/09/15 09:20:24;;;;;;;;;;;;;;;;;;5075582;28;19919;-20
2022/09/15 09:22:50;;;;;;;;;;;;;;;;;;5075375;28;19912;-20
2022/09/15 09:25:16;;;;;;;;;;;;;;;;;;5075534;28;19923;-18
2022/09/15 09:27:42;;;;;;;;;;;;;;;;;;5076053;28;19912;-20
2022/09/15 09:30:08;;;;;;;;;;;;;;;;;;5076537;28;19912;-19
2022/09/15 09:32:34;;;;;;;;;;;;;;;;;;5076167;28;19920;-19
2022/09/15 09:35:00;;;;;;;;;;;;;;;;;;5076103;28;20251;-19
2022/09/15 09:37:27;;;;;;;;;;;;;;;;;;5075697;28;19924;-20
2022/09/15 09:39:52;;;;;;;;;;;;;;;;;;5075770;28;20353;-20
2022/09/15 09:42:19;;;;;;;;;;;;;;;;;;5075678;28;19916;-20
2022/09/15 09:44:45;;;;;;;;;;;;;;;;;;5075256;28;19928;-19
2022/09/15 09:47:14;;;;;;;;;;;;;;;;;;5075482;28;19994;-20
2022/09/15 09:49:40;;;;;;;;;;;;;;;;;;5075449;28;20254;-19
2022/09/15 09:52:06;;;;;;;;;;;;;;;;;;5075240;28;19908;-19
2022/09/15 09:54:32;;;;;;;;;;;;;;;;;;5075045;28;19970;-19
2022/09/15 09:56:58;;;;;;;;;;;;;;;;;;5074985;28;20254;-19
2022/09/15 09:59:24;;;;;;;;;;;;;;;;;;5075547;28;19913;-21
2022/09/15 10:01:50;;;;;;;;;;;;;;;;;;5075110;28;20247;-20
2022/09/15 10:04:16;;;;;;;;;;;;;;;;;;5074897;28;20006;-20
2022/09/15 10:06:42;;;;;;;;;;;;;;;;;;5075083;28;20394;-20
2022/09/15 10:09:08;;;;;;;;;;;;;;;;;;5075435;28;20008;-20
2022/09/15 10:11:34;;;;;;;;;;;;;;;;;;5075359;28;19932;-19
2022/09/15 10:14:00;;;;;;;;;;;;;;;;;;5075503;28;19916;-19
2022/09/15 10:16:26;;;;;;;;;;;;;;;;;;5074557;28;19931;-20
2022/09/15 10:18:52;;;;;;;;;;;;;;;;;;5057430;28;20232;-20
2022/09/15 10:21:19;;;;;;;;;;;;;;;;;;5074971;28;19917;-19
2022/09/15 10:23:45;;;;;;;;;;;;;;;;;;5074737;28;20260;-19
2022/09/15 10:26:11;;;;;;;;;;;;;;;;;;5075244;28;20302;-19
2022/09/15 10:28:37;;;;;;;;;;;;;;;;;;5075016;28;19952;-19
2022/09/15 10:31:03;;;;;;;;;;;;;;;;;;5058132;28;20236;-23
2022/09/15 10:33:29;;;;;;;;;;;;;;;;;;5074560;28;20208;-19
2022/09/15 10:35:55;;;;;;;;;;;;;;;;;;5074935;28;19923;-20
2022/09/15 10:38:21;;;;;;;;;;;;;;;;;;5074652;28;19973;-20
2022/09/15 10:40:47;;;;;;;;;;;;;;;;;;5075056;28;19909;-20
2022/09/15 10:43:13;;;;;;;;;;;;;;;;;;5056878;28;19995;-20
2022/09/15 10:45:39;;;;;;;;;;;;;;;;;;5074906;28;19923;-19
2022/09/15 10:48:05;;;;;;;;;;;;;;;;;;5074488;28;19912;-23
2022/09/15 10:50:32;;;;;;;;;;;;;;;;;;5074429;28;19913;-20
2022/09/15 10:52:58;;;;;;;;;;;;;;;;;;5074432;28;19917;-19
2022/09/15 10:55:24;;;;;;;;;;;;;;;;;;5056668;28;19913;-20
2022/09/15 10:57:50;;;;;;;;;;;;;;;;;;5074323;28;19917;-20
2022/09/15 11:00:16;;;;;;;;;;;;;;;;;;5074058;28;19999;-20
2022/09/15 11:02:42;;;;;;;;;;;;;;;;;;5073462;28;19952;-19
2022/09/15 11:05:09;;;;;;;;;;;;;;;;;;5073860;28;19939;-20
2022/09/15 11:07:35;;;;;;;;;;;;;;;;;;5073814;28;19926;-20
2022/09/15 11:10:01;;;;;;;;;;;;;;;;;;5073941;28;19935;-19
2022/09/15 11:12:27;;;;;;;;;;;;;;;;;;5074066;28;20335;-18
2022/09/15 11:14:53;;;;;;;;;;;;;;;;;;5074021;28;20247;-20
2022/09/15 11:17:19;;;;;;;;;;;;;;;;;;5073714;28;20316;-20
2022/09/15 11:19:45;;;;;;;;;;;;;;;;;;5073865;28;19980;-19
2022/09/15 11:22:11;;;;;;;;;;;;;;;;;;5074050;28;20076;-20
2022/09/15 11:24:37;;;;;;;;;;;;;;;;;;5073978;28;19926;-19
2022/09/15 11:27:03;;;;;;;;;;;;;;;;;;5077154;28;19967;-20
2022/09/15 11:29:29;;;;;;;;;;;;;;;;;;5078592;28;19920;-20
2022/09/15 11:31:55;;;;;;;;;;;;;;;;;;5078249;28;19974;-20
2022/09/15 11:34:22;;;;;;;;;;;;;;;;;;5077953;28;20323;-20
2022/09/15 11:36:48;;;;;;;;;;;;;;;;;;5078007;28;20455;-20
2022/09/15 11:39:14;;;;;;;;;;;;;;;;;;5078099;28;19909;-19
2022/09/15 11:41:40;;;;;;;;;;;;;;;;;;5077849;28;20347;-19
2022/09/15 11:44:06;;;;;;;;;;;;;;;;;;5077712;28;19964;-19
2022/09/15 11:46:32;;;;;;;;;;;;;;;;;;5077633;28;20258;-18
2022/09/15 11:48:58;;;;;;;;;;;;;;;;;;5059928;28;19920;-19
2022/09/15 11:51:24;;;;;;;;;;;;;;;;;;5077850;28;19934;-19
2022/09/15 11:53:50;;;;;;;;;;;;;;;;;;5077939;28;19966;-19
2022/09/15 11:56:16;;;;;;;;;;;;;;;;;;5077627;28;19912;-20
2022/09/15 11:58:42;;;;;;;;;;;;;;;;;;5077422;28;19985;-19
2022/09/15 12:01:08;;;;;;;;;;;;;;;;;;5077467;28;20003;-20
2022/09/15 12:03:34;;;;;;;;;;;;;;;;;;5077688;28;19995;-19
2022/09/15 12:06:01;;;;;;;;;;;;;;;;;;5077301;28;19982;-18
2022/09/15 12:08:27;;;;;;;;;;;;;;;;;;5077666;28;19970;-20
2022/09/15 12:10:53;;;;;;;;;;;;;;;;;;5077582;28;20208;-19
2022/09/15 12:13:19;;;;;;;;;;;;;;;;;;5077153;28;19912;-19
2022/09/15 12:15:45;;;;;;;;;;;;;;;;;;5077287;28;19915;-19
2022/09/15 12:18:11;;;;;;;;;;;;;;;;;;5077351;28;19935;-20
2022/09/15 12:20:37;;;;;;;;;;;;;;;;;;5077224;28;20307;-20
2022/09/15 12:23:03;;;;;;;;;;;;;;;;;;5076953;28;19971;-19
2022/09/15 12:25:29;;;;;;;;;;;;;;;;;;5059437;28;20005;-18
2022/09/15 12:27:55;;;;;;;;;;;;;;;;;;5077482;28;19932;-20
2022/09/15 12:30:21;;;;;;;;;;;;;;;;;;5077224;28;19916;-20
2022/09/15 12:32:47;;;;;;;;;;;;;;;;;;5076821;28;19920;-20
2022/09/15 12:35:14;;;;;;;;;;;;;;;;;;5059158;28;19913;-20
2022/09/15 12:37:40;;;;;;;;;;;;;;;;;;5075857;28;19912;-20
2022/09/15 12:40:06;;;;;;;;;;;;;;;;;;5076901;28;19908;-20
2022/09/15 12:42:33;;;;;;;;;;;;;;;;;;5076379;28;19916;-19
2022/09/15 12:44:59;;;;;;;;;;;;;;;;;;5076949;28;19963;-19
2022/09/15 12:47:25;;;;;;;;;;;;;;;;;;5076594;28;19908;-19
2022/09/15 12:49:51;;;;;;;;;;;;;;;;;;5076780;28;19962;-19
2022/09/15 12:52:17;;;;;;;;;;;;;;;;;;5076583;28;19923;-25
2022/09/15 12:54:44;;;;;;;;;;;;;;;;;;5076657;28;19908;-19
2022/09/15 12:57:10;;;;;;;;;;;;;;;;;;5076377;28;19912;-20
2022/09/15 12:59:36;;;;;;;;;;;;;;;;;;5076548;28;20347;-19
2022/09/15 13:02:02;;;;;;;;;;;;;;;;;;5076392;28;19997;-20
2022/09/15 13:04:28;;;;;;;;;;;;;;;;;;5059309;28;19962;-20
2022/09/15 13:06:54;;;;;;;;;;;;;;;;;;5076579;28;19908;-20
2022/09/15 13:09:20;;;;;;;;;;;;;;;;;;5076736;28;20347;-20
2022/09/15 13:11:46;;;;;;;;;;;;;;;;;;5076450;28;19966;-20
2022/09/15 13:14:13;;;;;;;;;;;;;;;;;;5076782;28;19916;-19
2022/09/15 13:16:39;;;;;;;;;;;;;;;;;;5076210;28;20365;-19
2022/09/15 13:19:06;;;;;;;;;;;;;;;;;;5076501;28;19908;-20
2022/09/15 13:21:32;;;;;;;;;;;;;;;;;;5076463;28;19912;-19
2022/09/15 13:23:58;;;;;;;;;;;;;;;;;;5058336;28;19913;-19
2022/09/15 13:26:24;;;;;;;;;;;;;;;;;;5076693;28;19942;-19
2022/09/15 13:28:50;;;;;;;;;;;;;;;;;;5076048;28;19919;-19
2022/09/15 13:31:16;;;;;;;;;;;;;;;;;;5075828;28;19923;-20
2022/09/15 13:33:42;;;;;;;;;;;;;;;;;;5076390;28;19947;-20
2022/09/15 13:36:08;;;;;;;;;;;;;;;;;;5075897;28;20357;-19
2022/09/15 13:38:34;;;;;;;;;;;;;;;;;;5075844;28;19948;-20
2022/09/15 13:41:00;;;;;;;;;;;;;;;;;;5075491;28;19954;-19
2022/09/15 13:43:27;;;;;;;;;;;;;;;;;;5075537;28;19916;-19
2022/09/15 13:45:53;;;;;;;;;;;;;;;;;;5075977;28;19917;-19
2022/09/15 13:48:19;;;;;;;;;;;;;;;;;;5075700;28;19912;-19
2022/09/15 13:50:45;;;;;;;;;;;;;;;;;;5058065;28;19912;-19
2022/09/15 13:53:11;;;;;;;;;;;;;;;;;;5075446;28;19923;-19
2022/09/15 13:55:38;;;;;;;;;;;;;;;;;;5075313;28;19909;-19
2022/09/15 13:58:04;;;;;;;;;;;;;;;;;;5075134;28;20263;-19
2022/09/15 14:00:30;;;;;;;;;;;;;;;;;;5057286;28;19908;-19
2022/09/15 14:02:56;;;;;;;;;;;;;;;;;;5074617;28;19912;-19
2022/09/15 14:05:22;;;;;;;;;;;;;;;;;;5074607;28;19929;-19
2022/09/15 14:07:48;;;;;;;;;;;;;;;;;;5074664;28;20413;-19
2022/09/15 14:10:14;;;;;;;;;;;;;;;;;;5074857;28;19909;-19
2022/09/15 14:12:40;;;;;;;;;;;;;;;;;;5074920;28;20309;-18
2022/09/15 14:15:07;;;;;;;;;;;;;;;;;;5075318;28;20205;-19
2022/09/15 14:17:34;;;;;;;;;;;;;;;;;;5074674;28;19917;-20
2022/09/15 14:20:00;;;;;;;;;;;;;;;;;;5074625;28;20219;-19
2022/09/15 14:22:26;;;;;;;;;;;;;;;;;;5074687;28;19908;-19
2022/09/15 14:24:52;;;;;;;;;;;;;;;;;;5074858;28;20323;-19
2022/09/15 14:27:20;;;;;;;;;;;;;;;;;;5074587;28;19991;-18
2022/09/15 14:29:47;;;;;;;;;;;;;;;;;;5074606;28;19912;-20
2022/09/15 14:32:13;;;;;;;;;;;;;;;;;;5074578;28;19921;-20
2022/09/15 14:34:40;;;;;;;;;;;;;;;;;;5074605;28;19920;-20
2022/09/15 14:37:06;;;;;;;;;;;;;;;;;;5074668;28;20252;-19
2022/09/15 14:39:33;;;;;;;;;;;;;;;;;;5074993;28;19948;-17
2022/09/15 14:41:59;;;;;;;;;;;;;;;;;;5074750;28;19937;-18
2022/09/15 14:44:25;;;;;;;;;;;;;;;;;;5074880;28;19920;-19
2022/09/15 14:46:51;;;;;;;;;;;;;;;;;;5056574;28;19919;-19
2022/09/15 14:49:17;;;;;;;;;;;;;;;;;;5074327;28;20315;-18
2022/09/15 14:51:43;;;;;;;;;;;;;;;;;;5074327;28;19913;-19
2022/09/15 14:54:09;;;;;;;;;;;;;;;;;;5074412;28;20258;-19
2022/09/15 14:56:35;;;;;;;;;;;;;;;;;;5074718;28;20011;-19
2022/09/15 14:59:01;;;;;;;;;;;;;;;;;;5074343;28;19981;-19
2022/09/15 15:01:27;;;;;;;;;;;;;;;;;;5073811;28;19912;-18
2022/09/15 15:03:54;;;;;;;;;;;;;;;;;;5073661;28;19916;-19
2022/09/15 15:06:20;;;;;;;;;;;;;;;;;;5073944;28;19917;-19
2022/09/15 15:08:46;;;;;;;;;;;;;;;;;;5074144;28;19936;-19
2022/09/15 15:11:12;;;;;;;;;;;;;;;;;;5074005;28;19915;-19
2022/09/15 15:13:38;;;;;;;;;;;;;;;;;;5074330;28;19916;-20
2022/09/15 15:16:04;;;;;;;;;;;;;;;;;;5073807;28;19913;-20
2022/09/15 15:18:30;;;;;;;;;;;;;;;;;;5073847;28;19919;-20
2022/09/15 15:20:56;;;;;;;;;;;;;;;;;;5073754;28;19923;-19
2022/09/15 15:23:22;;;;;;;;;;;;;;;;;;5056076;28;19999;-19
2022/09/15 15:25:48;;;;;;;;;;;;;;;;;;5073805;28;19916;-20
2022/09/15 15:28:14;;;;;;;;;;;;;;;;;;5073861;28;19909;-20
2022/09/15 15:30:40;;;;;;;;;;;;;;;;;;5073655;28;20236;-19
2022/09/15 15:33:06;;;;;;;;;;;;;;;;;;5073504;28;19909;-19
2022/09/15 15:35:34;;;;;;;;;;;;;;;;;;5074026;28;20341;-19
2022/09/15 15:38:01;;;;;;;;;;;;;;;;;;5074148;28;20259;-18
2022/09/15 15:40:27;;;;;;;;;;;;;;;;;;5074344;28;20246;-19
2022/09/15 15:42:53;;;;;;;;;;;;;;;;;;5056338;28;19948;-19
2022/09/15 15:45:20;;;;;;;;;;;;;;;;;;5073908;28;19987;-19
2022/09/15 15:47:46;;;;;;;;;;;;;;;;;;5073892;28;19909;-19
2022/09/15 15:50:12;;;;;;;;;;;;;;;;;;5073834;28;19917;-19
2022/09/15 15:52:38;;;;;;;;;;;;;;;;;;5073636;28;19951;-19
2022/09/15 15:55:04;;;;;;;;;;;;;;;;;;5073746;28;19962;-19
2022/09/15 15:57:31;;;;;;;;;;;;;;;;;;5073968;28;20263;-19
2022/09/15 15:59:58;;;;;;;;;;;;;;;;;;5055985;28;20349;-19
2022/09/15 16:02:24;;;;;;;;;;;;;;;;;;5073322;28;19920;-18
2022/09/15 16:04:50;;;;;;;;;;;;;;;;;;5073508;28;19916;-19
2022/09/15 16:07:16;;;;;;;;;;;;;;;;;;5074104;28;19925;-19
2022/09/15 16:09:42;;;;;;;;;;;;;;;;;;5073608;28;19908;-19
2022/09/15 16:12:08;;;;;;;;;;;;;;;;;;5073645;28;19912;-19
2022/09/15 16:14:34;;;;;;;;;;;;;;;;;;5076793;28;20442;-19
2022/09/15 16:17:00;;;;;;;;;;;;;;;;;;5077373;28;19936;-19
2022/09/15 16:19:26;;;;;;;;;;;;;;;;;;5059685;28;20227;-20
2022/09/15 16:21:52;;;;;;;;;;;;;;;;;;5059562;28;19919;-22
2022/09/15 16:24:18;;;;;;;;;;;;;;;;;;5076995;28;19913;-19
2022/09/15 16:26:43;;;;;;;;;;;;;;;;;;5076872;28;19955;-20
2022/09/15 16:29:10;;;;;;;;;;;;;;;;;;5077629;28;19938;-20
2022/09/15 16:31:36;;;;;;;;;;;;;;;;;;5077289;28;19969;-19
2022/09/15 16:34:02;;;;;;;;;;;;;;;;;;5076914;28;20359;-19
2022/09/15 16:36:27;;;;;;;;;;;;;;;;;;5077189;28;20014;-20
2022/09/15 16:38:53;;;;;;;;;;;;;;;;;;5058941;28;19909;-20
2022/09/15 16:41:19;;;;;;;;;;;;;;;;;;5076836;28;19912;-19
2022/09/15 16:43:46;;;;;;;;;;;;;;;;;;5077033;28;19974;-20